createdAt,value
2019-04-13T00:00:25.340Z,0.60
2019-04-13T00:03:14.613Z,0.60
2019-04-13T00:06:08.104Z,0.80
2019-04-13T00:08:57.113Z,0.90
2019-04-13T00:11:59.546Z,0.90
2019-04-13T00:14:48.244Z,0.90
2019-04-13T00:17:37.391Z,0.80
2019-04-13T00:20:26.584Z,0.80
2019-04-13T00:23:15.328Z,0.80
2019-04-13T00:26:04.810Z,1.00
2019-04-13T00:28:54.398Z,1.10
2019-04-13T00:31:43.381Z,1.10
2019-04-13T00:34:41.302Z,1.20
2019-04-13T00:37:23.740Z,1.10
2019-04-13T00:40:12.596Z,1.00
2019-04-13T00:43:01.721Z,0.90
2019-04-13T00:45:51.342Z,0.90
2019-04-13T00:48:40.914Z,0.90
2019-04-13T00:51:30.388Z,0.90
2019-04-13T00:54:20.168Z,0.90
2019-04-13T00:57:08.688Z,1.00
2019-04-13T00:59:58.293Z,1.00
2019-04-13T01:02:47.328Z,1.00
2019-04-13T01:05:36.299Z,1.10
2019-04-13T01:08:25.473Z,1.10
2019-04-13T01:11:14.561Z,1.10
2019-04-13T01:14:03.618Z,1.10
2019-04-13T01:16:52.443Z,1.10
2019-04-13T01:19:41.749Z,1.10
2019-04-13T01:22:30.702Z,1.20
2019-04-13T01:25:19.885Z,1.20
2019-04-13T01:28:08.945Z,1.30
2019-04-13T01:30:58.212Z,1.30
2019-04-13T01:33:46.956Z,1.30
2019-04-13T01:36:35.725Z,1.40
2019-04-13T01:39:25.616Z,1.30
2019-04-13T01:42:14.979Z,1.30
2019-04-13T01:45:05.070Z,1.30
2019-04-13T01:47:54.049Z,1.30
2019-04-13T01:50:43.208Z,1.30
2019-04-13T01:53:32.332Z,1.40
2019-04-13T01:56:21.632Z,1.40
2019-04-13T01:59:10.839Z,1.40
2019-04-13T02:02:04.234Z,1.40
2019-04-13T02:05:00.706Z,1.50
2019-04-13T02:07:51.479Z,1.50
2019-04-13T02:10:42.328Z,1.50
2019-04-13T02:13:31.880Z,1.50
2019-04-13T02:16:20.964Z,1.50
2019-04-13T02:19:10.331Z,1.60
2019-04-13T02:21:59.380Z,1.60
2019-04-13T02:24:48.965Z,1.60
2019-04-13T02:27:37.517Z,1.60
2019-04-13T02:30:26.711Z,1.70
2019-04-13T02:33:15.867Z,1.70
2019-04-13T02:36:05.536Z,1.70
2019-04-13T02:38:55.065Z,1.70
2019-04-13T02:41:44.325Z,1.70
2019-04-13T02:44:33.344Z,1.60
2019-04-13T02:47:23.027Z,1.70
2019-04-13T02:50:13.262Z,1.70
2019-04-13T02:53:02.501Z,1.70
2019-04-13T02:55:52.104Z,1.60
2019-04-13T02:58:41.333Z,1.60
2019-04-13T03:01:30.999Z,1.60
2019-04-13T03:04:21.401Z,1.70
2019-04-13T03:07:11.166Z,1.70
2019-04-13T03:10:00.705Z,1.70
2019-04-13T03:12:49.697Z,1.70
2019-04-13T03:15:56.738Z,1.70
2019-04-13T03:19:03.190Z,1.70
2019-04-13T03:21:52.451Z,1.70
2019-04-13T03:24:41.815Z,1.70
2019-04-13T03:27:30.732Z,1.60
2019-04-13T03:30:22.322Z,1.60
2019-04-13T03:33:11.755Z,1.70
2019-04-13T03:36:00.955Z,1.60
2019-04-13T03:38:49.676Z,1.60
2019-04-13T03:41:39.082Z,1.70
2019-04-13T03:44:28.212Z,1.70
2019-04-13T03:47:17.417Z,1.60
2019-04-13T03:50:08.760Z,1.70
2019-04-13T03:52:57.898Z,1.70
2019-04-13T03:55:47.266Z,1.70
2019-04-13T03:58:36.854Z,1.70
2019-04-13T04:01:26.318Z,1.80
2019-04-13T04:04:15.142Z,1.80
2019-04-13T04:07:04.483Z,1.80
2019-04-13T04:09:54.021Z,1.80
2019-04-13T04:12:43.281Z,1.80
2019-04-13T04:15:32.872Z,1.90
2019-04-13T04:18:21.991Z,1.90
2019-04-13T04:21:11.817Z,1.90
2019-04-13T04:24:00.959Z,1.90
2019-04-13T04:26:50.457Z,2.00
2019-04-13T04:29:39.954Z,2.00
2019-04-13T04:32:28.480Z,2.00
2019-04-13T04:35:18.062Z,2.00
2019-04-13T04:38:07.109Z,2.00
2019-04-13T04:40:56.605Z,2.00
2019-04-13T04:43:45.641Z,1.90
2019-04-13T04:46:35.054Z,1.90
2019-04-13T04:49:24.271Z,2.00
2019-04-13T04:52:13.180Z,1.90
2019-04-13T04:55:02.438Z,2.00
2019-04-13T04:57:51.617Z,2.00
2019-04-13T05:00:41.090Z,2.10
2019-04-13T05:03:30.138Z,2.10
2019-04-13T05:06:19.219Z,2.10
2019-04-13T05:09:08.542Z,2.10
2019-04-13T05:11:57.345Z,2.10
2019-04-13T05:14:46.614Z,2.10
2019-04-13T05:17:36.094Z,2.10
2019-04-13T05:20:24.777Z,2.20
2019-04-13T05:23:14.199Z,2.20
2019-04-13T05:26:03.339Z,2.30
2019-04-13T05:28:52.522Z,2.30
2019-04-13T05:31:42.021Z,2.30
2019-04-13T05:34:30.474Z,2.30
2019-04-13T05:37:19.750Z,2.30
2019-04-13T05:40:09.860Z,2.20
2019-04-13T05:42:58.893Z,2.10
2019-04-13T05:45:47.959Z,2.30
2019-04-13T05:48:37.419Z,2.30
2019-04-13T05:51:27.002Z,2.30
2019-04-13T05:54:16.074Z,2.40
2019-04-13T05:57:05.558Z,2.50
2019-04-13T05:59:54.554Z,2.60
2019-04-13T06:02:43.295Z,2.60
2019-04-13T06:05:32.532Z,2.50
2019-04-13T06:08:21.807Z,2.50
2019-04-13T06:11:11.198Z,2.70
2019-04-13T06:14:02.059Z,2.70
2019-04-13T06:16:51.146Z,2.90
2019-04-13T06:19:40.049Z,3.00
2019-04-13T06:22:29.589Z,2.80
2019-04-13T06:25:19.151Z,2.80
2019-04-13T06:28:08.177Z,2.80
2019-04-13T06:30:59.634Z,2.90
2019-04-13T06:33:50.252Z,2.90
2019-04-13T06:36:41.562Z,2.90
2019-04-13T06:39:30.014Z,3.00
2019-04-13T06:42:19.701Z,2.90
2019-04-13T06:45:13.016Z,3.10
2019-04-13T06:48:00.430Z,3.20
2019-04-13T06:50:50.167Z,3.20
2019-04-13T06:53:39.183Z,3.30
2019-04-13T06:56:29.107Z,3.40
2019-04-13T06:59:18.472Z,3.50
2019-04-13T07:02:07.852Z,3.50
2019-04-13T07:04:56.905Z,3.60
2019-04-13T07:07:55.316Z,3.50
2019-04-13T07:10:50.051Z,3.60
2019-04-13T07:13:43.134Z,3.50
2019-04-13T07:16:43.032Z,3.60
2019-04-13T07:19:29.865Z,3.70
2019-04-13T07:22:19.750Z,3.90
2019-04-13T07:25:10.571Z,3.70
2019-04-13T07:28:01.896Z,3.80
2019-04-13T07:30:51.161Z,3.80
2019-04-13T07:33:40.949Z,3.80
2019-04-13T07:36:30.529Z,3.90
2019-04-13T07:39:19.613Z,4.20
2019-04-13T07:42:09.469Z,4.10
2019-04-13T07:44:59.854Z,4.10
2019-04-13T07:47:56.035Z,4.00
2019-04-13T07:50:55.184Z,4.00
2019-04-13T07:53:44.283Z,4.20
2019-04-13T07:56:33.170Z,4.40
2019-04-13T07:59:22.603Z,4.60
2019-04-13T08:02:12.386Z,4.70
2019-04-13T08:05:00.815Z,4.60
2019-04-13T08:07:52.986Z,4.60
2019-04-13T08:10:40.291Z,4.70
2019-04-13T08:13:29.561Z,4.90
2019-04-13T08:16:18.709Z,5.10
2019-04-13T08:19:12.239Z,5.30
2019-04-13T08:22:01.928Z,5.60
2019-04-13T08:24:50.733Z,5.70
2019-04-13T08:27:39.490Z,6.20
2019-04-13T08:30:29.594Z,6.30
2019-04-13T08:33:18.644Z,6.40
2019-04-13T08:36:07.682Z,6.50
2019-04-13T08:38:59.030Z,6.60
2019-04-13T08:41:51.221Z,6.20
2019-04-13T08:44:39.101Z,5.80
2019-04-13T08:47:28.070Z,5.70
2019-04-13T08:50:17.701Z,5.60
2019-04-13T08:53:07.218Z,5.70
2019-04-13T08:55:56.331Z,5.60
2019-04-13T08:58:45.497Z,5.70
2019-04-13T09:01:34.512Z,5.60
2019-04-13T09:04:24.097Z,5.50
2019-04-13T09:07:15.181Z,5.60
2019-04-13T09:10:07.290Z,5.50
2019-04-13T09:12:57.932Z,5.70
2019-04-13T09:15:48.727Z,5.80
2019-04-13T09:18:39.925Z,5.80
2019-04-13T09:21:30.286Z,5.90
2019-04-13T09:24:20.100Z,6.20
2019-04-13T09:27:09.470Z,6.50
2019-04-13T09:29:58.685Z,6.70
2019-04-13T09:32:48.355Z,6.40
2019-04-13T09:35:37.638Z,6.30
2019-04-13T09:38:26.999Z,6.30
2019-04-13T09:41:16.283Z,6.40
2019-04-13T09:44:07.577Z,6.60
2019-04-13T09:46:58.283Z,6.90
2019-04-13T09:49:49.646Z,7.10
2019-04-13T09:52:39.946Z,7.00
2019-04-13T09:55:29.955Z,7.10
2019-04-13T09:58:19.076Z,7.30
2019-04-13T10:01:07.660Z,7.60
2019-04-13T10:03:56.877Z,7.80
2019-04-13T10:06:47.705Z,8.00
2019-04-13T10:09:39.598Z,7.50
2019-04-13T10:12:27.667Z,7.00
2019-04-13T10:15:28.384Z,7.20
2019-04-13T10:18:22.378Z,7.40
2019-04-13T10:21:13.077Z,7.50
2019-04-13T10:24:02.233Z,7.40
2019-04-13T10:26:51.183Z,7.20
2019-04-13T10:29:40.265Z,7.10
2019-04-13T10:32:31.238Z,6.90
2019-04-13T10:35:19.957Z,6.90
2019-04-13T10:38:09.406Z,6.90
2019-04-13T10:40:58.447Z,7.70
2019-04-13T10:43:48.048Z,8.00
2019-04-13T10:46:39.746Z,8.40
2019-04-13T10:49:36.699Z,8.60
2019-04-13T10:52:25.260Z,8.50
2019-04-13T10:55:14.753Z,8.80
2019-04-13T10:58:04.015Z,8.90
2019-04-13T11:00:52.526Z,9.00
2019-04-13T11:03:42.406Z,8.40
2019-04-13T11:06:31.474Z,8.30
2019-04-13T11:09:22.262Z,8.20
2019-04-13T11:12:11.753Z,7.70
2019-04-13T11:15:00.883Z,7.60
2019-04-13T11:17:49.437Z,7.20
2019-04-13T11:20:45.047Z,7.30
2019-04-13T11:23:36.133Z,7.40
2019-04-13T11:26:22.914Z,7.30
2019-04-13T11:29:13.153Z,7.50
2019-04-13T11:32:02.383Z,7.40
2019-04-13T11:34:51.943Z,7.70
2019-04-13T11:37:41.420Z,8.10
2019-04-13T11:40:30.952Z,8.40
2019-04-13T11:43:21.928Z,9.00
2019-04-13T11:46:21.332Z,8.70
2019-04-13T11:49:14.907Z,8.70
2019-04-13T11:52:03.943Z,8.40
2019-04-13T11:54:52.651Z,7.70
2019-04-13T11:57:41.759Z,7.30
2019-04-13T12:00:42.659Z,6.40
2019-04-13T12:03:41.889Z,6.00
2019-04-13T12:06:38.576Z,6.10
2019-04-13T12:09:29.125Z,6.30
2019-04-13T12:12:26.578Z,6.70
2019-04-13T12:15:22.112Z,6.80
2019-04-13T12:18:30.305Z,7.40
2019-04-13T12:21:34.638Z,7.70
2019-04-13T12:24:25.938Z,7.60
2019-04-13T12:27:14.686Z,7.40
2019-04-13T12:30:11.061Z,7.40
2019-04-13T12:32:59.269Z,7.30
2019-04-13T12:35:48.138Z,6.80
2019-04-13T12:38:49.173Z,6.40
2019-04-13T12:41:29.441Z,6.30
2019-04-13T12:44:18.726Z,6.60
2019-04-13T12:47:10.200Z,6.80
2019-04-13T12:49:59.214Z,7.10
2019-04-13T12:52:48.938Z,7.40
2019-04-13T12:55:38.549Z,7.50
2019-04-13T12:58:26.953Z,7.60
2019-04-13T13:01:18.149Z,7.90
2019-04-13T13:04:07.127Z,7.90
2019-04-13T13:06:56.582Z,8.00
2019-04-13T13:09:46.152Z,8.00
2019-04-13T13:12:37.148Z,7.90
2019-04-13T13:15:26.636Z,8.20
2019-04-13T13:18:15.372Z,8.40
2019-04-13T13:21:04.950Z,8.80
2019-04-13T13:23:54.462Z,9.30
2019-04-13T13:26:48.467Z,9.70
2019-04-13T13:29:34.286Z,9.70
2019-04-13T13:32:23.258Z,10.00
2019-04-13T13:35:12.319Z,9.90
2019-04-13T13:38:04.702Z,9.80
2019-04-13T13:40:52.080Z,9.40
2019-04-13T13:43:43.085Z,8.70
2019-04-13T13:46:31.903Z,8.50
2019-04-13T13:49:21.240Z,8.10
2019-04-13T13:52:10.697Z,7.80
2019-04-13T13:54:59.876Z,7.80
2019-04-13T13:57:55.965Z,7.80
2019-04-13T14:00:46.908Z,7.70
2019-04-13T14:03:35.526Z,7.70
2019-04-13T14:06:24.927Z,7.90
2019-04-13T14:09:14.193Z,8.10
2019-04-13T14:12:03.772Z,8.40
2019-04-13T14:14:52.566Z,8.40
2019-04-13T14:17:41.601Z,8.00
2019-04-13T14:20:33.884Z,7.30
2019-04-13T14:23:21.365Z,7.20
2019-04-13T14:26:10.938Z,7.00
2019-04-13T14:29:00.215Z,6.80
2019-04-13T14:31:49.489Z,6.60
2019-04-13T14:34:38.598Z,6.50
2019-04-13T14:37:28.235Z,6.70
2019-04-13T14:40:17.480Z,6.80
2019-04-13T14:43:07.003Z,6.80
2019-04-13T14:45:56.549Z,6.70
2019-04-13T14:48:46.021Z,6.80
2019-04-13T14:51:34.671Z,6.80
2019-04-13T14:54:23.954Z,6.90
2019-04-13T14:57:13.417Z,7.10
2019-04-13T15:00:02.689Z,7.10
2019-04-13T15:02:51.273Z,7.10
2019-04-13T15:05:40.609Z,7.20
2019-04-13T15:08:29.404Z,7.10
2019-04-13T15:11:19.045Z,7.20
2019-04-13T15:14:08.755Z,7.10
2019-04-13T15:17:03.317Z,7.10
2019-04-13T15:20:01.021Z,7.10
2019-04-13T15:22:40.912Z,7.00
2019-04-13T15:25:31.060Z,7.10
2019-04-13T15:28:21.309Z,7.10
2019-04-13T15:31:12.204Z,7.30
2019-04-13T15:34:03.268Z,7.20
2019-04-13T15:36:53.126Z,7.10
2019-04-13T15:39:45.567Z,7.20
2019-04-13T15:42:41.525Z,7.20
2019-04-13T15:45:24.571Z,7.00
2019-04-13T15:48:15.954Z,7.10
2019-04-13T15:51:05.253Z,7.10
2019-04-13T15:53:54.714Z,7.20
2019-04-13T15:56:45.676Z,7.10
2019-04-13T15:59:35.418Z,7.20
2019-04-13T16:02:25.066Z,7.30
2019-04-13T16:05:14.564Z,7.60
2019-04-13T16:08:05.852Z,7.50
2019-04-13T16:11:03.491Z,7.20
2019-04-13T16:13:52.193Z,7.10
2019-04-13T16:16:41.574Z,6.90
2019-04-13T16:19:31.001Z,6.90
2019-04-13T16:22:21.224Z,6.80
2019-04-13T16:25:12.077Z,6.80
2019-04-13T16:28:06.254Z,6.80
2019-04-13T16:31:07.346Z,6.70
2019-04-13T16:34:14.294Z,6.50
2019-04-13T16:37:17.174Z,6.40
2019-04-13T16:40:08.588Z,6.40
2019-04-13T16:42:57.912Z,6.30
2019-04-13T16:46:01.479Z,6.10
2019-04-13T16:49:09.064Z,6.10
2019-04-13T16:52:02.874Z,6.10
2019-04-13T16:54:59.757Z,6.10
2019-04-13T16:57:46.841Z,6.00
2019-04-13T17:00:41.368Z,5.90
2019-04-13T17:03:35.766Z,5.90
2019-04-13T17:06:26.110Z,5.80
2019-04-13T17:09:16.397Z,5.70
2019-04-13T17:12:16.899Z,5.70
2019-04-13T17:14:56.382Z,5.70
2019-04-13T17:17:45.663Z,5.80
2019-04-13T17:20:39.468Z,5.80
2019-04-13T17:23:44.956Z,5.70
2019-04-13T17:26:52.360Z,5.70
2019-04-13T17:29:50.215Z,5.70
2019-04-13T17:32:41.317Z,5.60
2019-04-13T17:35:30.832Z,5.70
2019-04-13T17:38:20.121Z,5.70
2019-04-13T17:41:22.635Z,5.50
2019-04-13T17:44:12.440Z,5.50
2019-04-13T17:47:12.286Z,5.50
2019-04-13T17:50:03.790Z,5.40
2019-04-13T17:53:06.482Z,5.30
2019-04-13T17:55:57.403Z,5.30
2019-04-13T17:58:49.132Z,5.20
2019-04-13T18:01:39.662Z,5.20
2019-04-13T18:04:46.400Z,5.20
2019-04-13T18:07:37.451Z,5.10
2019-04-13T18:10:32.466Z,5.10
2019-04-13T18:13:28.850Z,5.00
2019-04-13T18:16:23.648Z,5.00
2019-04-13T18:19:14.816Z,5.00
2019-04-13T18:22:04.151Z,5.00
2019-04-13T18:24:53.617Z,5.00
2019-04-13T18:27:43.494Z,4.90
2019-04-13T18:30:36.098Z,4.80
2019-04-13T18:33:23.212Z,4.80
2019-04-13T18:36:13.311Z,4.80
2019-04-13T18:39:02.893Z,4.80
2019-04-13T18:41:52.657Z,4.70
2019-04-13T18:44:42.676Z,4.70
2019-04-13T18:47:32.802Z,4.70
2019-04-13T18:50:22.442Z,4.70
2019-04-13T18:53:12.813Z,4.60
2019-04-13T18:56:02.779Z,4.50
2019-04-13T18:58:53.023Z,4.60
2019-04-13T19:01:43.197Z,4.60
2019-04-13T19:04:32.633Z,4.60
2019-04-13T19:07:22.176Z,4.60
2019-04-13T19:10:11.864Z,4.60
2019-04-13T19:13:04.482Z,4.50
2019-04-13T19:15:52.251Z,4.50
2019-04-13T19:18:40.780Z,4.50
2019-04-13T19:21:30.271Z,4.50
2019-04-13T19:24:19.617Z,4.50
2019-04-13T19:27:09.014Z,4.50
2019-04-13T19:29:58.121Z,4.50
2019-04-13T19:32:47.415Z,4.50
2019-04-13T19:35:36.747Z,4.50
2019-04-13T19:38:25.259Z,4.50
2019-04-13T19:41:14.733Z,4.50
2019-04-13T19:44:04.199Z,4.50
2019-04-13T19:46:53.162Z,4.50
2019-04-13T19:49:42.673Z,4.50
2019-04-13T19:52:35.877Z,4.50
2019-04-13T19:55:24.905Z,4.50
2019-04-13T19:58:13.862Z,4.50
2019-04-13T20:01:03.105Z,4.50
2019-04-13T20:03:52.415Z,4.50
2019-04-13T20:06:42.056Z,4.50
2019-04-13T20:09:31.224Z,4.50
2019-04-13T20:12:19.979Z,4.50
2019-04-13T20:15:09.729Z,4.40
2019-04-13T20:17:59.975Z,4.40
2019-04-13T20:20:49.276Z,4.40
2019-04-13T20:23:38.128Z,4.30
2019-04-13T20:26:27.292Z,4.30
2019-04-13T20:29:16.827Z,4.30
2019-04-13T20:32:06.407Z,4.20
2019-04-13T20:34:55.622Z,4.20
2019-04-13T20:37:44.853Z,4.20
2019-04-13T20:40:35.999Z,4.10
2019-04-13T20:43:25.530Z,4.20
2019-04-13T20:46:15.093Z,4.20
2019-04-13T20:49:04.604Z,4.10
2019-04-13T20:51:53.651Z,4.00
2019-04-13T20:54:42.868Z,4.00
2019-04-13T20:57:32.675Z,3.90
2019-04-13T21:00:22.465Z,3.90
2019-04-13T21:03:12.471Z,3.90
2019-04-13T21:06:02.304Z,3.80
2019-04-13T21:08:54.275Z,3.70
2019-04-13T21:11:43.722Z,3.70
2019-04-13T21:14:39.249Z,3.70
2019-04-13T21:17:23.360Z,3.60
2019-04-13T21:20:14.405Z,3.60
2019-04-13T21:23:03.996Z,3.60
2019-04-13T21:25:53.319Z,3.60
2019-04-13T21:28:42.995Z,3.60
2019-04-13T21:31:32.588Z,3.50
2019-04-13T21:34:22.240Z,3.50
2019-04-13T21:37:11.718Z,3.50
2019-04-13T21:40:01.268Z,3.50
2019-04-13T21:42:51.329Z,3.40
2019-04-13T21:45:40.838Z,3.40
2019-04-13T21:48:32.550Z,3.30
2019-04-13T21:51:37.984Z,3.40
2019-04-13T21:54:29.968Z,3.30
2019-04-13T21:57:19.801Z,3.30
2019-04-13T22:00:15.933Z,3.30
2019-04-13T22:03:05.664Z,3.30
2019-04-13T22:05:55.255Z,3.30
2019-04-13T22:08:45.092Z,3.30
2019-04-13T22:11:34.376Z,3.20
2019-04-13T22:14:33.309Z,3.20
2019-04-13T22:17:14.583Z,3.20
2019-04-13T22:20:04.155Z,3.20
2019-04-13T22:22:53.335Z,3.20
2019-04-13T22:25:43.143Z,3.20
2019-04-13T22:28:34.377Z,3.20
2019-04-13T22:31:26.586Z,3.10
2019-04-13T22:34:34.181Z,3.10
2019-04-13T22:37:23.893Z,3.10
2019-04-13T22:40:13.386Z,3.10
2019-04-13T22:43:02.839Z,3.00
2019-04-13T22:45:51.737Z,3.00
2019-04-13T22:48:42.722Z,3.00
2019-04-13T22:51:33.750Z,3.00
2019-04-13T22:54:23.520Z,3.00
2019-04-13T22:57:23.765Z,3.00
2019-04-13T23:00:19.467Z,3.00
2019-04-13T23:03:15.786Z,2.90
2019-04-13T23:06:05.540Z,2.90
2019-04-13T23:08:55.444Z,2.90
2019-04-13T23:11:45.258Z,2.80
2019-04-13T23:14:37.207Z,2.80
2019-04-13T23:17:27.042Z,2.70
2019-04-13T23:20:17.015Z,2.70
2019-04-13T23:23:07.286Z,2.70
2019-04-13T23:25:57.285Z,2.60
2019-04-13T23:28:47.193Z,2.60
2019-04-13T23:31:36.743Z,2.60
2019-04-13T23:34:26.801Z,2.60
2019-04-13T23:37:16.905Z,2.50
2019-04-13T23:40:09.214Z,2.50
2019-04-13T23:42:59.246Z,2.60
2019-04-13T23:45:49.297Z,2.50
2019-04-13T23:48:38.239Z,2.50
2019-04-13T23:51:27.466Z,2.50
2019-04-13T23:54:17.534Z,2.50
2019-04-13T23:57:11.788Z,2.50
